createdAt,value
2023-02-09T00:00:30.276Z,25.52
2023-02-09T00:01:30.286Z,25.49
2023-02-09T00:02:30.232Z,25.53
2023-02-09T00:03:30.230Z,25.50
2023-02-09T00:04:30.095Z,25.49
2023-02-09T00:05:30.071Z,25.48
2023-02-09T00:06:30.135Z,25.49
2023-02-09T00:07:29.986Z,25.50
2023-02-09T00:08:29.964Z,25.49
2023-02-09T00:09:29.907Z,25.52
2023-02-09T00:10:29.877Z,25.56
2023-02-09T00:11:29.840Z,25.52
2023-02-09T00:12:29.833Z,25.53
2023-02-09T00:13:29.754Z,25.52
2023-02-09T00:14:29.720Z,25.50
2023-02-09T00:15:29.703Z,25.50
2023-02-09T00:16:29.715Z,25.52
2023-02-09T00:17:29.630Z,25.50
2023-02-09T00:18:29.548Z,25.49
2023-02-09T00:19:31.177Z,25.49
2023-02-09T00:20:29.480Z,25.52
2023-02-09T00:21:29.479Z,25.50
2023-02-09T00:22:29.404Z,25.49
2023-02-09T00:23:29.383Z,25.50
2023-02-09T00:24:29.323Z,25.50
2023-02-09T00:25:29.301Z,25.52
2023-02-09T00:26:29.276Z,25.50
2023-02-09T00:27:29.192Z,25.52
2023-02-09T00:28:29.180Z,25.54
2023-02-09T00:29:29.111Z,25.49
2023-02-09T00:30:29.129Z,25.49
2023-02-09T00:31:29.114Z,25.48
2023-02-09T00:32:29.007Z,25.48
2023-02-09T00:33:28.946Z,25.48
2023-02-09T00:34:29.112Z,25.46
2023-02-09T00:35:28.859Z,25.45
2023-02-09T00:36:28.817Z,25.43
2023-02-09T00:37:28.774Z,25.45
2023-02-09T00:38:28.729Z,25.49
2023-02-09T00:39:28.674Z,25.48
2023-02-09T00:40:28.649Z,25.48
2023-02-09T00:41:28.584Z,25.48
2023-02-09T00:42:28.525Z,25.48
2023-02-09T00:43:28.496Z,25.45
2023-02-09T00:44:28.453Z,25.45
2023-02-09T00:45:28.410Z,25.46
2023-02-09T00:46:28.380Z,25.45
2023-02-09T00:47:28.322Z,25.45
2023-02-09T00:48:28.259Z,25.45
2023-02-09T00:49:28.225Z,25.45
2023-02-09T00:50:28.188Z,25.43
2023-02-09T00:51:28.113Z,25.42
2023-02-09T00:52:28.100Z,25.43
2023-02-09T00:53:28.027Z,25.45
2023-02-09T00:54:27.995Z,25.42
2023-02-09T00:55:27.979Z,25.42
2023-02-09T00:56:27.930Z,25.42
2023-02-09T00:57:27.869Z,25.39
2023-02-09T00:58:27.831Z,25.45
2023-02-09T00:59:27.757Z,25.42
2023-02-09T01:00:27.721Z,25.43
2023-02-09T01:01:27.752Z,25.42
2023-02-09T01:02:27.655Z,25.42
2023-02-09T01:03:27.599Z,25.43
2023-02-09T01:04:27.596Z,25.43
2023-02-09T01:05:27.559Z,25.43
2023-02-09T01:06:27.529Z,25.42
2023-02-09T01:07:27.536Z,25.46
2023-02-09T01:08:27.457Z,25.43
2023-02-09T01:09:27.492Z,25.43
2023-02-09T01:10:27.341Z,25.45
2023-02-09T01:11:27.273Z,25.42
2023-02-09T01:12:27.260Z,25.42
2023-02-09T01:13:27.166Z,25.41
2023-02-09T01:14:27.156Z,25.41
2023-02-09T01:15:27.118Z,25.42
2023-02-09T01:16:27.070Z,25.42
2023-02-09T01:17:27.029Z,25.41
2023-02-09T01:18:26.969Z,25.43
2023-02-09T01:19:26.912Z,25.46
2023-02-09T01:20:26.878Z,25.42
2023-02-09T01:21:26.864Z,25.41
2023-02-09T01:22:26.817Z,25.41
2023-02-09T01:23:26.784Z,25.42
2023-02-09T01:24:26.759Z,25.45
2023-02-09T01:25:26.696Z,25.43
2023-02-09T01:26:26.660Z,25.43
2023-02-09T01:27:26.630Z,25.41
2023-02-09T01:28:26.673Z,25.36
2023-02-09T01:29:26.561Z,25.43
2023-02-09T01:30:26.577Z,25.43
2023-02-09T01:31:26.587Z,25.42
2023-02-09T01:32:26.456Z,25.41
2023-02-09T01:33:26.535Z,25.41
2023-02-09T01:34:26.363Z,25.42
2023-02-09T01:35:26.299Z,25.39
2023-02-09T01:36:26.277Z,25.39
2023-02-09T01:37:26.246Z,25.41
2023-02-09T01:38:26.223Z,25.39
2023-02-09T01:39:26.152Z,25.39
2023-02-09T01:40:26.110Z,25.42
2023-02-09T01:41:26.066Z,25.35
2023-02-09T01:42:26.041Z,25.36
2023-02-09T01:43:26.019Z,25.39
2023-02-09T01:44:25.976Z,25.39
2023-02-09T01:45:25.894Z,25.39
2023-02-09T01:46:25.924Z,25.38
2023-02-09T01:47:25.836Z,25.38
2023-02-09T01:48:25.847Z,25.36
2023-02-09T01:49:25.759Z,25.39
2023-02-09T01:50:25.744Z,25.38
2023-02-09T01:51:25.711Z,25.39
2023-02-09T01:52:25.648Z,25.39
2023-02-09T01:53:25.632Z,25.41
2023-02-09T01:54:25.601Z,25.39
2023-02-09T01:55:25.532Z,25.41
2023-02-09T01:56:25.481Z,25.41
2023-02-09T01:57:25.460Z,25.39
2023-02-09T01:58:25.419Z,25.39
2023-02-09T01:59:25.392Z,25.35
2023-02-09T02:00:25.348Z,25.39
2023-02-09T02:01:25.302Z,25.38
2023-02-09T02:02:25.304Z,25.35
2023-02-09T02:03:25.217Z,25.35
2023-02-09T02:04:25.187Z,25.33
2023-02-09T02:05:25.150Z,25.32
2023-02-09T02:06:25.070Z,25.36
2023-02-09T02:07:25.029Z,25.38
2023-02-09T02:08:25.047Z,25.36
2023-02-09T02:09:25.015Z,25.35
2023-02-09T02:10:24.929Z,25.33
2023-02-09T02:11:24.899Z,25.31
2023-02-09T02:12:24.862Z,25.33
2023-02-09T02:13:24.811Z,25.33
2023-02-09T02:14:24.768Z,25.35
2023-02-09T02:15:24.734Z,25.32
2023-02-09T02:16:24.696Z,25.32
2023-02-09T02:17:24.650Z,25.35
2023-02-09T02:18:24.606Z,25.33
2023-02-09T02:19:24.570Z,25.32
2023-02-09T02:20:24.542Z,25.32
2023-02-09T02:21:24.525Z,25.32
2023-02-09T02:22:24.472Z,25.31
2023-02-09T02:23:24.448Z,25.33
2023-02-09T02:24:24.369Z,25.32
2023-02-09T02:25:24.330Z,25.31
2023-02-09T02:26:24.305Z,25.33
2023-02-09T02:27:24.263Z,25.32
2023-02-09T02:28:24.282Z,25.32
2023-02-09T02:29:24.189Z,25.33
2023-02-09T02:30:24.184Z,25.36
2023-02-09T02:31:24.202Z,25.32
2023-02-09T02:32:24.029Z,25.31
2023-02-09T02:33:24.014Z,25.29
2023-02-09T02:34:23.964Z,25.32
2023-02-09T02:35:23.905Z,25.32
2023-02-09T02:36:23.882Z,25.33
2023-02-09T02:37:23.836Z,25.28
2023-02-09T02:38:23.804Z,25.31
2023-02-09T02:39:23.769Z,25.28
2023-02-09T02:40:23.734Z,25.21
2023-02-09T02:41:23.713Z,25.24
2023-02-09T02:42:23.645Z,25.15
2023-02-09T02:43:23.623Z,25.18
2023-02-09T02:44:23.607Z,25.14
2023-02-09T02:45:23.539Z,25.17
2023-02-09T02:46:23.536Z,25.14
2023-02-09T02:47:23.516Z,25.10
2023-02-09T02:48:23.464Z,25.05
2023-02-09T02:49:23.453Z,25.10
2023-02-09T02:50:23.436Z,25.05
2023-02-09T02:51:23.365Z,25.05
2023-02-09T02:52:23.337Z,24.98
2023-02-09T02:53:23.322Z,24.97
2023-02-09T02:54:23.295Z,24.99
2023-02-09T02:55:23.258Z,24.99
2023-02-09T02:56:23.206Z,24.97
2023-02-09T02:57:23.195Z,24.94
2023-02-09T02:58:23.159Z,24.91
2023-02-09T02:59:23.143Z,24.97
2023-02-09T03:00:23.114Z,24.94
2023-02-09T03:01:23.095Z,24.90
2023-02-09T03:02:23.031Z,24.88
2023-02-09T03:03:23.014Z,24.91
2023-02-09T03:04:22.998Z,24.91
2023-02-09T03:05:22.991Z,24.93
2023-02-09T03:06:22.904Z,24.83
2023-02-09T03:07:22.868Z,24.84
2023-02-09T03:08:22.871Z,24.86
2023-02-09T03:09:22.822Z,24.84
2023-02-09T03:10:22.773Z,24.86
2023-02-09T03:11:22.756Z,24.90
2023-02-09T03:12:22.717Z,24.87
2023-02-09T03:13:22.679Z,24.83
2023-02-09T03:14:22.690Z,24.83
2023-02-09T03:15:22.619Z,24.83
2023-02-09T03:16:22.723Z,24.83
2023-02-09T03:17:22.545Z,24.87
2023-02-09T03:18:22.517Z,24.87
2023-02-09T03:19:22.548Z,24.90
2023-02-09T03:20:22.472Z,24.86
2023-02-09T03:21:22.434Z,24.84
2023-02-09T03:22:22.384Z,24.80
2023-02-09T03:23:22.347Z,24.77
2023-02-09T03:24:22.341Z,24.79
2023-02-09T03:25:22.288Z,24.84
2023-02-09T03:26:22.258Z,24.83
2023-02-09T03:27:22.210Z,24.81
2023-02-09T03:28:22.225Z,24.77
2023-02-09T03:29:22.168Z,24.79
2023-02-09T03:30:22.149Z,24.73
2023-02-09T03:31:22.138Z,24.74
2023-02-09T03:32:22.022Z,24.74
2023-02-09T03:33:21.993Z,24.77
2023-02-09T03:34:21.973Z,24.74
2023-02-09T03:35:21.924Z,24.77
2023-02-09T03:36:21.888Z,24.77
2023-02-09T03:37:21.850Z,24.79
2023-02-09T03:38:21.822Z,24.83
2023-02-09T03:39:21.790Z,24.80
2023-02-09T03:40:21.744Z,24.80
2023-02-09T03:41:21.682Z,24.81
2023-02-09T03:42:21.661Z,24.80
2023-02-09T03:43:21.642Z,24.83
2023-02-09T03:44:21.634Z,24.80
2023-02-09T03:45:21.585Z,24.74
2023-02-09T03:46:21.552Z,24.81
2023-02-09T03:47:21.476Z,24.70
2023-02-09T03:48:21.440Z,24.71
2023-02-09T03:49:21.404Z,24.76
2023-02-09T03:50:21.379Z,24.76
2023-02-09T03:51:21.340Z,24.69
2023-02-09T03:52:21.301Z,24.70
2023-02-09T03:53:21.250Z,24.70
2023-02-09T03:54:21.208Z,24.69
2023-02-09T03:55:21.221Z,24.70
2023-02-09T03:56:21.137Z,24.76
2023-02-09T03:57:21.130Z,24.74
2023-02-09T03:58:21.085Z,24.77
2023-02-09T03:59:21.044Z,24.70
2023-02-09T04:00:21.028Z,24.77
2023-02-09T04:01:20.996Z,24.70
2023-02-09T04:02:20.929Z,24.66
2023-02-09T04:03:20.860Z,24.70
2023-02-09T04:04:20.819Z,24.74
2023-02-09T04:05:20.798Z,24.76
2023-02-09T04:06:20.751Z,24.76
2023-02-09T04:07:20.724Z,24.80
2023-02-09T04:08:20.700Z,24.79
2023-02-09T04:09:20.668Z,24.74
2023-02-09T04:10:20.611Z,24.66
2023-02-09T04:11:22.617Z,24.67
2023-02-09T04:12:20.556Z,24.73
2023-02-09T04:13:20.480Z,24.70
2023-02-09T04:14:20.447Z,24.73
2023-02-09T04:15:20.430Z,24.71
2023-02-09T04:16:20.468Z,24.66
2023-02-09T04:17:20.345Z,24.63
2023-02-09T04:18:20.312Z,24.64
2023-02-09T04:19:20.330Z,24.66
2023-02-09T04:20:20.240Z,24.67
2023-02-09T04:21:20.176Z,24.71
2023-02-09T04:22:20.135Z,24.71
2023-02-09T04:23:21.211Z,24.74
2023-02-09T04:24:20.058Z,24.70
2023-02-09T04:25:20.012Z,24.64
2023-02-09T04:26:19.961Z,24.66
2023-02-09T04:27:20.648Z,24.71
2023-02-09T04:28:19.894Z,24.73
2023-02-09T04:29:19.871Z,24.73
2023-02-09T04:30:19.828Z,24.74
2023-02-09T04:31:19.860Z,24.77
2023-02-09T04:32:19.741Z,24.67
2023-02-09T04:33:19.698Z,24.60
2023-02-09T04:34:19.642Z,24.66
2023-02-09T04:35:19.627Z,24.67
2023-02-09T04:36:19.573Z,24.71
2023-02-09T04:37:19.571Z,24.67
2023-02-09T04:38:19.484Z,24.70
2023-02-09T04:39:19.457Z,24.70
2023-02-09T04:40:19.420Z,24.67
2023-02-09T04:41:19.389Z,24.59
2023-02-09T04:42:19.370Z,24.64
2023-02-09T04:43:19.314Z,24.63
2023-02-09T04:44:19.294Z,24.70
2023-02-09T04:45:19.254Z,24.67
2023-02-09T04:46:19.188Z,24.70
2023-02-09T04:47:19.178Z,24.62
2023-02-09T04:48:19.125Z,24.66
2023-02-09T04:49:19.097Z,24.66
2023-02-09T04:50:19.059Z,24.63
2023-02-09T04:51:19.023Z,24.66
2023-02-09T04:52:18.972Z,24.67
2023-02-09T04:53:18.963Z,24.67
2023-02-09T04:54:18.921Z,24.70
2023-02-09T04:55:18.938Z,24.66
2023-02-09T04:56:18.854Z,24.67
2023-02-09T04:57:18.842Z,24.64
2023-02-09T04:58:18.756Z,24.62
2023-02-09T04:59:18.732Z,24.70
2023-02-09T05:00:18.702Z,24.73
2023-02-09T05:01:18.759Z,24.74
2023-02-09T05:02:18.642Z,24.71
2023-02-09T05:03:18.631Z,24.69
2023-02-09T05:04:18.588Z,24.62
2023-02-09T05:05:19.095Z,24.64
2023-02-09T05:06:18.605Z,24.66
2023-02-09T05:07:19.102Z,24.67
2023-02-09T05:08:18.554Z,24.67
2023-02-09T05:09:18.553Z,24.64
2023-02-09T05:10:18.512Z,24.69
2023-02-09T05:11:18.518Z,24.67
2023-02-09T05:12:18.416Z,24.69
2023-02-09T05:13:18.371Z,24.69
2023-02-09T05:14:18.360Z,24.66
2023-02-09T05:15:18.318Z,24.69
2023-02-09T05:16:18.322Z,24.69
2023-02-09T05:17:18.232Z,24.71
2023-02-09T05:18:18.223Z,24.73
2023-02-09T05:19:18.175Z,24.69
2023-02-09T05:20:18.128Z,24.66
2023-02-09T05:21:18.106Z,24.64
2023-02-09T05:22:18.056Z,24.66
2023-02-09T05:23:18.029Z,24.69
2023-02-09T05:24:17.981Z,24.70
2023-02-09T05:25:17.950Z,24.69
2023-02-09T05:26:17.936Z,24.67
2023-02-09T05:27:17.898Z,24.66
2023-02-09T05:28:17.881Z,24.64
2023-02-09T05:29:17.812Z,24.64
2023-02-09T05:30:17.766Z,24.66
2023-02-09T05:31:17.980Z,24.66
2023-02-09T05:32:17.799Z,24.64
2023-02-09T05:33:17.705Z,24.70
2023-02-09T05:34:17.661Z,24.67
2023-02-09T05:35:17.601Z,24.64
2023-02-09T05:36:17.580Z,24.64
2023-02-09T05:37:17.545Z,24.59
2023-02-09T05:38:17.503Z,24.60
2023-02-09T06:11:16.402Z,24.79
2023-02-09T06:12:16.369Z,24.81
2023-02-09T06:13:16.359Z,24.84
2023-02-09T06:14:16.300Z,24.87
2023-02-09T06:15:16.312Z,24.88
2023-02-09T06:16:16.220Z,24.88
2023-02-09T06:17:16.216Z,24.87
2023-02-09T06:18:16.140Z,24.90
2023-02-09T06:19:16.117Z,24.90
2023-02-09T06:20:16.074Z,24.90
2023-02-09T06:21:16.019Z,24.88
2023-02-09T06:22:16.014Z,24.91
2023-02-09T06:23:15.936Z,24.93
2023-02-09T06:24:15.915Z,24.93
2023-02-09T06:25:15.909Z,24.91
2023-02-09T06:26:15.864Z,24.90
2023-02-09T06:27:15.816Z,24.91
2023-02-09T06:28:15.769Z,24.90
2023-02-09T06:29:15.732Z,24.91
2023-02-09T06:30:15.659Z,24.91
2023-02-09T06:31:15.826Z,24.95
2023-02-09T06:32:15.667Z,24.93
2023-02-09T06:33:15.585Z,24.91
2023-02-09T06:34:15.575Z,25.08
2023-02-09T06:35:15.473Z,25.24
2023-02-09T06:36:15.481Z,25.25
2023-02-09T06:37:15.424Z,25.45
2023-02-09T06:38:15.315Z,25.49
2023-02-09T06:39:16.033Z,25.58
2023-02-09T06:40:15.282Z,25.63
2023-02-09T06:41:15.205Z,25.66
2023-02-09T06:42:15.191Z,25.77
2023-02-09T06:43:15.130Z,25.87
2023-02-09T06:44:15.196Z,25.91
2023-02-09T06:45:15.025Z,25.88
2023-02-09T06:46:15.139Z,25.94
2023-02-09T06:47:17.136Z,25.94
2023-02-09T06:48:17.745Z,25.97
2023-02-09T06:49:15.129Z,25.94
2023-02-09T06:50:14.995Z,26.05
2023-02-09T06:51:15.378Z,26.11
2023-02-09T06:52:15.507Z,26.11
2023-02-09T06:53:14.697Z,26.18
2023-02-09T06:54:14.665Z,26.22
2023-02-09T06:55:14.580Z,26.20
2023-02-09T06:56:14.563Z,26.13
2023-02-09T06:57:14.705Z,26.04
2023-02-09T06:58:14.422Z,25.88
2023-02-09T06:59:14.401Z,25.76
2023-02-09T07:00:14.366Z,25.53
2023-02-09T07:01:14.332Z,25.32
2023-02-09T07:02:14.354Z,25.18
2023-02-09T07:03:14.262Z,25.10
2023-02-09T07:04:14.169Z,24.97
2023-02-09T07:05:14.173Z,24.83
2023-02-09T07:06:14.168Z,24.56
2023-02-09T07:07:14.157Z,24.36
2023-02-09T07:08:14.111Z,24.22
2023-02-09T07:09:14.203Z,24.11
2023-02-09T07:10:14.203Z,24.14
2023-02-09T07:11:14.641Z,24.19
2023-02-09T07:13:13.988Z,24.43
2023-02-09T07:15:14.178Z,24.71
2023-02-09T07:16:14.889Z,24.84
2023-02-09T07:45:14.207Z,25.52
2023-02-09T07:47:15.212Z,25.42
2023-02-09T07:50:15.677Z,25.70
2023-02-09T07:51:18.532Z,25.79
2023-02-09T07:52:16.299Z,25.90
2023-02-09T07:54:14.522Z,26.04
2023-02-09T07:57:15.634Z,26.27
2023-02-09T07:59:17.240Z,26.42
2023-02-09T08:01:16.835Z,26.49
2023-02-09T08:05:17.380Z,26.64
2023-02-09T08:06:41.937Z,26.67
2023-02-09T08:07:15.383Z,26.73
2023-02-09T08:58:09.265Z,26.18
2023-02-09T08:59:09.140Z,26.20
2023-02-09T09:00:09.014Z,26.18
2023-02-09T09:01:09.076Z,26.21
2023-02-09T09:02:09.690Z,26.14
2023-02-09T09:03:08.893Z,26.18
2023-02-09T09:04:09.826Z,26.15
2023-02-09T09:05:09.825Z,26.11
2023-02-09T09:06:09.027Z,26.08
2023-02-09T09:07:08.685Z,26.08
2023-02-09T09:08:08.722Z,25.97
2023-02-09T09:09:08.573Z,25.98
2023-02-09T09:10:08.540Z,25.94
2023-02-09T09:11:08.509Z,25.91
2023-02-09T09:12:08.395Z,25.87
2023-02-09T09:13:09.300Z,25.84
2023-02-09T09:14:09.238Z,25.76
2023-02-09T09:15:08.241Z,25.81
2023-02-09T09:16:08.231Z,25.77
2023-02-09T09:17:08.320Z,25.77
2023-02-09T09:18:08.120Z,25.80
2023-02-09T09:19:08.027Z,25.81
2023-02-09T09:20:08.037Z,25.77
2023-02-09T09:21:07.934Z,25.77
2023-02-09T09:22:08.190Z,25.77
2023-02-09T09:23:07.851Z,25.45
2023-02-09T09:24:07.836Z,25.18
2023-02-09T09:25:07.891Z,24.74
2023-02-09T09:26:07.851Z,24.52
2023-02-09T09:27:07.719Z,24.51
2023-02-09T09:28:08.867Z,24.67
2023-02-09T09:29:08.119Z,24.77
2023-02-09T09:30:07.868Z,24.95
2023-02-09T09:31:07.666Z,24.88
2023-02-09T09:32:07.827Z,25.14
2023-02-09T09:33:07.667Z,25.38
2023-02-09T09:34:07.565Z,25.48
2023-02-09T09:35:07.726Z,25.65
2023-02-09T09:36:07.729Z,25.72
2023-02-09T09:37:07.573Z,25.62
2023-02-09T09:38:07.551Z,25.73
2023-02-09T09:39:07.398Z,25.77
2023-02-09T09:40:07.796Z,25.84
2023-02-09T09:41:07.301Z,25.72
2023-02-09T09:42:07.412Z,25.90
2023-02-09T09:43:07.187Z,25.93
2023-02-09T09:44:07.203Z,25.88
2023-02-09T09:45:07.291Z,25.90
2023-02-09T09:46:07.173Z,25.96
2023-02-09T09:47:07.134Z,25.91
2023-02-09T09:48:07.031Z,25.84
2023-02-09T09:49:07.102Z,25.90
2023-02-09T09:50:07.905Z,25.90
2023-02-09T09:51:07.779Z,26.01
2023-02-09T09:52:06.829Z,26.00
2023-02-09T09:53:06.806Z,25.96
2023-02-09T09:54:06.796Z,25.80
2023-02-09T09:55:08.304Z,25.72
2023-02-09T09:56:07.767Z,25.58
2023-02-09T09:57:06.727Z,25.48
2023-02-09T09:58:06.568Z,25.42
2023-02-09T09:59:06.543Z,25.32
2023-02-09T10:00:07.258Z,25.07
2023-02-09T10:01:06.522Z,25.07
2023-02-09T10:02:06.489Z,24.91
2023-02-09T10:03:06.519Z,24.97
2023-02-09T10:04:06.413Z,24.71
2023-02-09T10:05:34.725Z,24.83
2023-02-09T10:06:06.375Z,24.99
2023-02-09T10:07:06.446Z,25.17
2023-02-09T10:08:07.363Z,25.25
2023-02-09T10:09:06.258Z,25.43
2023-02-09T10:10:06.202Z,25.54
2023-02-09T10:11:06.253Z,25.66
2023-02-09T10:12:06.110Z,25.75
2023-02-09T10:13:06.743Z,25.91
2023-02-09T10:14:06.108Z,26.00
2023-02-09T10:15:05.974Z,26.05
2023-02-09T10:16:05.921Z,26.11
2023-02-09T10:17:05.959Z,26.18
2023-02-09T10:18:05.885Z,26.17
2023-02-09T10:19:05.788Z,26.25
2023-02-09T10:20:05.745Z,26.27
2023-02-09T10:21:07.448Z,26.32
2023-02-09T10:22:06.196Z,26.35
2023-02-09T10:23:05.553Z,26.36
2023-02-09T10:24:05.616Z,26.42
2023-02-09T10:25:05.490Z,26.45
2023-02-09T10:26:05.518Z,26.52
2023-02-09T10:27:06.197Z,26.58
2023-02-09T10:28:05.329Z,26.55
2023-02-09T10:29:05.282Z,26.58
2023-02-09T10:30:05.305Z,26.66
2023-02-09T10:31:05.520Z,26.63
2023-02-09T10:32:05.299Z,26.58
2023-02-09T10:33:05.127Z,26.67
2023-02-09T10:34:05.036Z,26.60
2023-02-09T10:35:04.961Z,26.63
2023-02-09T10:36:05.761Z,26.66
2023-02-09T10:37:05.862Z,26.64
2023-02-09T10:38:04.817Z,26.62
2023-02-09T10:39:04.778Z,26.64
2023-02-09T10:40:04.790Z,26.62
2023-02-09T10:41:04.687Z,26.62
2023-02-09T10:42:04.585Z,26.62
2023-02-09T10:43:04.575Z,26.67
2023-02-09T10:44:04.489Z,26.72
2023-02-09T10:45:04.760Z,26.76
2023-02-09T10:46:04.407Z,26.77
2023-02-09T10:47:04.382Z,26.80
2023-02-09T10:48:04.271Z,26.80
2023-02-09T10:49:04.242Z,26.79
2023-02-09T10:50:04.265Z,26.80
2023-02-09T10:51:04.200Z,26.77
2023-02-09T10:52:04.241Z,26.82
2023-02-09T10:53:04.155Z,26.86
2023-02-09T10:54:03.968Z,26.83
2023-02-09T10:55:03.908Z,26.87
2023-02-09T10:56:03.827Z,26.83
2023-02-09T10:57:03.762Z,26.58
2023-02-09T10:58:03.787Z,26.43
2023-02-09T10:59:03.694Z,26.21
2023-02-09T11:00:03.740Z,25.97
2023-02-09T11:01:03.683Z,25.84
2023-02-09T11:02:03.872Z,25.65
2023-02-09T11:03:03.577Z,25.33
2023-02-09T11:04:03.599Z,25.26
2023-02-09T11:05:03.622Z,25.22
2023-02-09T11:06:03.475Z,25.35
2023-02-09T11:07:03.497Z,25.45
2023-02-09T11:08:03.442Z,25.53
2023-02-09T11:09:03.378Z,25.59
2023-02-09T11:10:03.342Z,25.60
2023-02-09T11:11:03.427Z,25.86
2023-02-09T11:12:04.284Z,26.03
2023-02-09T11:13:03.332Z,26.07
2023-02-09T11:14:03.219Z,26.25
2023-02-09T11:15:03.160Z,26.31
2023-02-09T11:16:03.112Z,26.32
2023-02-09T11:17:03.292Z,26.31
2023-02-09T11:18:02.993Z,26.31
2023-02-09T11:19:04.902Z,26.39
2023-02-09T11:20:02.891Z,26.42
2023-02-09T11:21:02.874Z,26.42
2023-02-09T11:22:02.903Z,26.52
2023-02-09T11:23:02.701Z,26.56
2023-02-09T11:24:02.700Z,26.60
2023-02-09T11:25:02.568Z,26.53
2023-02-09T11:26:02.583Z,26.53
2023-02-09T11:27:02.481Z,26.56
2023-02-09T11:28:02.434Z,26.59
2023-02-09T11:29:02.355Z,26.56
2023-02-09T11:30:03.377Z,26.53
2023-02-09T11:31:02.304Z,26.50
2023-02-09T11:32:02.362Z,26.46
2023-02-09T11:33:04.761Z,26.38
2023-02-09T11:34:02.124Z,26.36
2023-02-09T11:35:03.410Z,26.36
2023-02-09T11:36:01.993Z,26.25
2023-02-09T11:37:01.869Z,26.31
2023-02-09T11:38:01.798Z,26.43
2023-02-09T11:39:01.802Z,26.32
2023-02-09T11:40:01.708Z,26.27
2023-02-09T11:41:01.657Z,26.25
2023-02-09T11:42:01.595Z,26.18
2023-02-09T11:43:01.570Z,26.00
2023-02-09T11:44:01.551Z,25.94
2023-02-09T11:45:01.594Z,25.88
2023-02-09T11:46:01.437Z,25.83
2023-02-09T11:47:01.488Z,25.75
2023-02-09T11:48:01.391Z,25.73
2023-02-09T11:49:02.284Z,25.70
2023-02-09T11:50:01.237Z,25.72
2023-02-09T11:51:01.368Z,25.76
2023-02-09T11:52:01.986Z,25.81
2023-02-09T11:53:01.113Z,25.90
2023-02-09T11:54:01.293Z,25.94
2023-02-09T11:55:01.050Z,25.94
2023-02-09T11:56:01.051Z,26.01
2023-02-09T11:57:01.376Z,26.03
2023-02-09T11:58:01.897Z,26.09
2023-02-09T11:59:00.863Z,26.13
2023-02-09T12:00:00.926Z,26.11
2023-02-09T12:01:14.255Z,26.07
2023-02-09T12:02:01.859Z,26.11
2023-02-09T12:03:00.824Z,26.13
2023-02-09T12:04:01.318Z,26.14
2023-02-09T12:05:00.646Z,26.17
2023-02-09T12:06:00.588Z,26.17
2023-02-09T12:07:00.657Z,26.18
2023-02-09T12:08:01.859Z,26.22
2023-02-09T12:09:00.497Z,26.18
2023-02-09T12:10:00.413Z,26.22
2023-02-09T12:11:00.330Z,26.20
2023-02-09T12:12:01.265Z,26.18
2023-02-09T12:13:00.252Z,26.24
2023-02-09T12:14:01.197Z,26.21
2023-02-09T12:15:00.766Z,26.21
2023-02-09T12:16:00.385Z,26.27
2023-02-09T12:17:01.778Z,26.30
2023-02-09T12:18:00.212Z,26.32
2023-02-09T12:19:00.011Z,26.39
2023-02-09T12:19:59.950Z,26.35
2023-02-09T12:20:59.905Z,26.28
2023-02-09T12:21:59.911Z,26.18
2023-02-09T12:23:00.021Z,26.31
2023-02-09T12:23:59.800Z,26.36
2023-02-09T12:24:59.743Z,26.42
2023-02-09T12:25:59.928Z,26.38
2023-02-09T12:26:59.702Z,26.45
2023-02-09T12:27:59.785Z,26.55
2023-02-09T12:28:59.917Z,26.69
2023-02-09T12:29:59.662Z,26.70
2023-02-09T12:30:59.502Z,26.66
2023-02-09T12:31:59.452Z,26.66
2023-02-09T12:32:59.405Z,26.69
2023-02-09T12:33:59.340Z,26.73
2023-02-09T12:34:59.225Z,26.72
2023-02-09T12:35:59.174Z,26.75
2023-02-09T12:36:59.123Z,26.77
2023-02-09T12:37:59.219Z,26.79
2023-02-09T12:39:04.678Z,26.80
2023-02-09T12:40:00.227Z,26.79
2023-02-09T12:40:58.909Z,26.83
2023-02-09T12:41:58.841Z,26.83
2023-02-09T12:42:58.818Z,26.87
2023-02-09T12:43:58.729Z,26.90
2023-02-09T12:44:58.695Z,26.89
2023-02-09T12:45:58.640Z,26.94
2023-02-09T12:46:58.588Z,26.96
2023-02-09T12:47:58.569Z,26.97
2023-02-09T12:48:58.445Z,26.97
2023-02-09T12:49:58.384Z,27.04
2023-02-09T12:50:58.342Z,27.04
2023-02-09T12:51:58.259Z,27.03
2023-02-09T12:52:58.275Z,27.05
2023-02-09T12:53:58.116Z,27.08
2023-02-09T12:54:58.072Z,27.10
2023-02-09T12:55:58.034Z,27.14
2023-02-09T12:56:57.945Z,27.13
2023-02-09T12:57:57.891Z,27.15
2023-02-09T12:58:57.853Z,27.18
2023-02-09T12:59:57.796Z,27.21
2023-02-09T13:00:57.753Z,27.20
2023-02-09T13:01:57.619Z,27.20
2023-02-09T13:02:57.589Z,27.24
2023-02-09T13:03:57.622Z,27.25
2023-02-09T13:04:57.431Z,27.25
2023-02-09T13:05:57.357Z,27.30
2023-02-09T13:06:57.309Z,27.31
2023-02-09T13:07:57.248Z,27.27
2023-02-09T13:08:57.196Z,27.31
2023-02-09T13:09:57.105Z,27.34
2023-02-09T13:10:57.046Z,27.34
2023-02-09T13:11:56.969Z,27.34
2023-02-09T13:12:56.926Z,27.35
2023-02-09T13:13:56.893Z,27.35
2023-02-09T13:14:56.811Z,27.38
2023-02-09T13:15:56.725Z,27.38
2023-02-09T13:16:56.727Z,27.38
2023-02-09T13:17:56.589Z,27.38
2023-02-09T13:18:56.544Z,27.41
2023-02-09T13:19:56.488Z,27.42
2023-02-09T13:20:56.386Z,27.44
2023-02-09T13:21:56.334Z,27.46
2023-02-09T13:22:56.262Z,27.46
2023-02-09T13:23:56.187Z,27.49
2023-02-09T13:24:56.126Z,27.48
2023-02-09T13:25:56.064Z,27.50
2023-02-09T13:26:55.995Z,27.50
2023-02-09T13:27:55.945Z,27.53
2023-02-09T13:28:55.895Z,27.53
2023-02-09T13:29:55.800Z,27.53
2023-02-09T13:30:55.707Z,27.59
2023-02-09T13:31:55.668Z,27.63
2023-02-09T13:32:55.817Z,27.65
2023-02-09T13:33:55.516Z,27.66
2023-02-09T13:34:55.430Z,27.67
2023-02-09T13:35:55.369Z,27.67
2023-02-09T13:36:55.317Z,27.69
2023-02-09T13:37:55.258Z,27.69
2023-02-09T13:38:55.170Z,27.70
2023-02-09T13:39:55.065Z,27.73
2023-02-09T13:40:55.029Z,27.75
2023-02-09T13:41:55.001Z,27.75
2023-02-09T13:42:54.859Z,27.77
2023-02-09T13:43:54.839Z,27.76
2023-02-09T13:44:54.722Z,27.80
2023-02-09T13:45:54.782Z,27.77
2023-02-09T13:46:54.629Z,27.79
2023-02-09T13:47:54.507Z,27.82
2023-02-09T13:48:54.421Z,27.82
2023-02-09T13:49:54.388Z,27.79
2023-02-09T13:50:54.307Z,27.80
2023-02-09T13:51:54.223Z,27.83
2023-02-09T13:52:54.123Z,27.84
2023-02-09T13:53:54.113Z,27.86
2023-02-09T13:54:54.025Z,27.89
2023-02-09T13:55:54.058Z,27.90
2023-02-09T14:29:51.441Z,28.04
2023-02-09T14:30:51.354Z,28.04
2023-02-09T14:31:51.236Z,28.01
2023-02-09T14:32:51.188Z,28.00
2023-02-09T14:33:51.118Z,28.01
2023-02-09T14:34:51.065Z,28.01
2023-02-09T14:35:50.949Z,27.99
2023-02-09T14:36:50.899Z,27.97
2023-02-09T14:37:50.858Z,27.94
2023-02-09T14:38:51.301Z,27.93
2023-02-09T14:39:50.729Z,27.92
2023-02-09T14:40:50.665Z,27.94
2023-02-09T14:41:50.502Z,27.90
2023-02-09T14:42:50.422Z,27.89
2023-02-09T14:43:50.378Z,27.86
2023-02-09T14:44:50.335Z,27.82
2023-02-09T14:45:50.502Z,27.77
2023-02-09T14:46:50.163Z,27.73
2023-02-09T14:47:50.089Z,27.75
2023-02-09T14:48:50.009Z,27.72
2023-02-09T14:49:50.038Z,27.67
2023-02-09T14:50:49.884Z,27.63
2023-02-09T14:51:49.849Z,27.65
2023-02-09T14:52:49.754Z,27.63
2023-02-09T14:53:50.306Z,27.59
2023-02-09T14:54:49.665Z,27.56
2023-02-09T14:55:49.575Z,27.53
2023-02-09T14:56:49.500Z,27.52
2023-02-09T14:57:49.419Z,27.52
2023-02-09T14:58:49.352Z,27.46
2023-02-09T14:59:49.315Z,27.46
2023-02-09T15:00:49.199Z,27.46
2023-02-09T15:01:49.204Z,27.45
2023-02-09T15:02:49.163Z,27.49
2023-02-09T15:03:49.015Z,27.49
2023-02-09T15:04:48.978Z,27.45
2023-02-09T15:05:48.984Z,27.44
2023-02-09T15:06:48.870Z,27.44
2023-02-09T15:07:48.751Z,27.45
2023-02-09T15:08:48.695Z,27.42
2023-02-09T15:09:48.615Z,27.41
2023-02-09T15:10:48.583Z,27.39
2023-02-09T15:11:48.519Z,27.41
2023-02-09T15:12:48.447Z,27.35
2023-02-09T15:13:48.373Z,27.35
2023-02-09T15:14:48.360Z,27.37
2023-02-09T15:15:48.750Z,27.34
2023-02-09T15:16:48.189Z,27.31
2023-02-09T15:17:48.144Z,27.31
2023-02-09T15:18:48.072Z,27.27
2023-02-09T15:19:48.005Z,27.24
2023-02-09T15:20:49.852Z,27.24
2023-02-09T15:21:58.850Z,27.22
2023-02-09T15:22:48.810Z,27.24
2023-02-09T15:23:47.741Z,27.22
2023-02-09T15:24:47.723Z,27.20
2023-02-09T15:25:47.960Z,27.20
2023-02-09T15:26:47.559Z,27.20
2023-02-09T15:27:51.322Z,27.17